MMUN/CUN METAR and TAF weather

Enter ICAO airport designator
Station Type Date Time Source
MMUN METAR 2023/01/28 06:45 UTC NOAA

MMUN 280645Z 10008KT 7SM BKN015 BKN070 23/22 A3012 RMK 60025 8/770 INTMT -RA


Station Type Date Time Source
MMUN Decoded METAR 2023/01/28 06:45 UTC NOAA

Cancun International Airport, Mexico (MMUN) 21-02N 086-52W
Jan 28, 2023 - 01:45 AM EST / 2023.01.28 0645 UTC
Wind: from the E (100 degrees) at 9 MPH (8 KT):0
Visibility: 7 mile(s):0
Sky conditions: mostly cloudy
Temperature: 73 F (23 C)
Dew Point: 71 F (22 C)
Relative Humidity: 94%
Pressure (altimeter): 30.12 in. Hg (1019 hPa)
ob: MMUN 280645Z 10008KT 7SM BKN015 BKN070 23/22 A3012 RMK 60025 8/770 INTMT -RA
cycle: 7

Station Type Date Time Source
MMUN TAF 2023/01/28 06:07 UTC NOAA

TAF MMUN 280501Z 2806/2906 05008KT 6SM HZ BKN015 OVC070 TX26/2821Z TN22/2812Z
TEMPO 2806/2810 4SM RA
FM281000 08010KT 6SM HZ BKN015 BKN070
TEMPO 2810/2814 5SM -RA BKN010
FM281800 10015KT 6SM HZ BKN020
FM290300 13010KT 6SM HZ BKN015

Example: see airport list